Flight Track Log - Related Links

Times and Time Zones

All times are in EST time to prevent confusion due to time zone crossing. See the G52617 flight status page for this flight to view local times or setup timezone preferences in your user account.

Time Position Orientation Groundspeed Altitude Reporting Facility
EST Latitude Longitude Course Direction KTS MPH feet Rate Location/Type
Sat 09:26:00 PM 23.0603 111.8386 126° Southeast  Level Estimated
Sat 09:27:00 PM 23.0241 111.8921 126° Southeast  Level Estimated
Sat 09:28:00 PM 22.9952 111.9349 126° Southeast  Level Estimated
Sat 09:29:00 PM 22.9662 111.9777 126° Southeast  Level Estimated
Sat 09:30:00 PM 22.9373 112.0204 126° Southeast  Level Estimated
Sat 09:31:00 PM 22.9083 112.0631 126° Southeast  Level Estimated
Sat 09:32:00 PM 22.8794 112.1058 126° Southeast  Level Estimated
Sat 09:33:00 PM 22.8504 112.1485 126° Southeast  Level Estimated
Sat 09:34:00 PM 22.8214 112.1912 126° Southeast  Level Estimated
Sat 09:35:00 PM 22.7924 112.2339 126° Southeast  Level Estimated
Sat 09:36:00 PM 22.7633 112.2765 126° Southeast  Level Estimated
Sat 09:37:00 PM 22.7343 112.3191 126° Southeast  Level Estimated
Sat 09:38:00 PM 22.7053 112.3617 126° Southeast  Level Estimated
Sat 09:39:00 PM 22.6762 112.4043 126° Southeast  Level Estimated
Sat 09:40:00 PM 22.6472 112.4469 126° Southeast  Level Estimated
Sat 09:41:00 PM 22.6181 112.4895 127° Southeast  Level Estimated
Sat 09:42:00 PM 22.5890 112.5320 127° Southeast  Level Estimated
Sat 09:43:00 PM 22.5599 112.5745 127° Southeast  Level Estimated
Sat 09:44:00 PM 22.5308 112.6170 127° Southeast  Level Estimated
Sat 09:45:00 PM 22.5016 112.6595 127° Southeast  Level Estimated
Sat 09:46:00 PM 22.4725 112.7020 127° Southeast  Level Estimated
Sat 09:47:00 PM 22.4434 112.7444 127° Southeast  Level Estimated
Sat 09:48:00 PM 22.4142 112.7868 127° Southeast  Level Estimated
Sat 09:49:00 PM 22.3851 112.8292 127° Southeast  Level Estimated
Sat 09:50:00 PM 22.3559 112.8716 127° Southeast  Level Estimated
Sat 09:51:00 PM 22.3267 112.9140 127° Southeast  Level Estimated
Sat 09:52:00 PM 22.2975 112.9564 127° Southeast  Level Estimated
Sat 09:53:00 PM 22.2683 112.9987 127° Southeast  Level Estimated
Sat 09:54:00 PM 22.2391 113.0410 127° Southeast  Level Estimated
Sat 09:55:00 PM 22.2098 113.0833 127° Southeast  Level Estimated
Sat 09:56:00 PM 22.1806 113.1256 127° Southeast  Level Estimated
Sat 09:57:00 PM 22.1513 113.1679 127° Southeast  Level Estimated
Sat 09:58:00 PM 22.1221 113.2101 127° Southeast  Level Estimated
Sat 09:59:00 PM 22.0928 113.2523 127° Southeast  Level Estimated
Sat 10:00:00 PM 22.0635 113.2945 127° Southeast  Level Estimated
Sat 10:01:00 PM 22.0342 113.3367 127° Southeast  Level Estimated
Sat 10:02:00 PM 22.0067 113.3764 127° Southeast  Level Estimated
Sat 10:03:00 PM 22.0067 113.3764 197° South  Level Estimated
Sat 10:04:00 PM 22.0067 113.3764 197° South  Level Estimated

Login

Don't have an account? Register now (free) for customized features, flight alerts, and more!